Portada
METAR-TAF:

METAR-TAF

Aeroports :

Nain, Terranova i Labrador, Canadà

latitud: 56-33N, longitud: 061-41W, altitud: 6 m

Observació

L'informe es va fer fa 53 minuts, a les 08:00 UTC
Vent 9 kt del Oest/Nord-Oest
Temperatura -6°C
Humitat 73%
Pressió 1009 hPa
Visibilitat: 24.1 km
Cel clar

METAR: CYDP 280800Z 29009KT 15SM SKC M06/M10 A2979 RMK SLP088

Hora: 05:53 (08:53 UTC)

Pronòstic

L'informe es va fer fa 13 hores i 15 minuts, a les 19:38 UTC
Pronòstic vàlid del 27 a les 20 UTC al 27 a les 23 UTC
Vent 15 kt del Oest/Nord-Oest
Visibilitat: 10 km
Escasses núvols a una alçada de 12000 ft
Núvols disperses a una alçada de 22000 ft

TAF: CYDP 271938Z 2720/2723 30015KT P6SM FEW120 SCT220 RMK NXT FCST WILL BE ISSUED AT 280945Z

Observacions i pronòstics meteorològics de més de 4000 aeroports (METAR i TAF).

Les estacions disponibles són els punts grocs i vermells al mapa.

Posi el ratolí al punt desitjat per veure el nom de l'estació.

Feu clic per veure les observacions i els pronòstics meteorològics.

Per canviar el mapa: feu clic els botons verds amb una creu de color negre per apropar; al botó verd amb un guió per allunyar la imatge; o en les fletxes verdes per a mapes adjacents.


METAR-TAF: